sensor_id;sensor_type;location;lat;lon;timestamp;temperature;humidity
20773;DHT22;10546;50.674;4.616;2024-01-30T06:37:37;10.10;99.90
20773;DHT22;10546;50.674;4.616;2024-01-30T06:40:03;10.00;99.90
20773;DHT22;10546;50.674;4.616;2024-01-30T06:42:30;10.10;99.90
20773;DHT22;10546;50.674;4.616;2024-01-30T06:44:56;10.00;99.90
20773;DHT22;10546;50.674;4.616;2024-01-30T06:47:22;10.10;99.90
20773;DHT22;10546;50.674;4.616;2024-01-30T06:49:47;10.20;99.90
20773;DHT22;10546;50.674;4.616;2024-01-30T06:52:13;10.10;99.90
20773;DHT22;10546;50.674;4.616;2024-01-30T06:54:39;10.10;99.90
20773;DHT22;10546;50.674;4.616;2024-01-30T06:57:05;10.20;99.90
20773;DHT22;10546;50.674;4.616;2024-01-30T06:59:34;10.10;99.90
20773;DHT22;10546;50.674;4.616;2024-01-30T07:02:00;10.20;99.90
20773;DHT22;10546;50.674;4.616;2024-01-30T07:04:26;10.30;99.90
20773;DHT22;10546;50.674;4.616;2024-01-30T07:06:51;10.20;99.90
20773;DHT22;10546;50.674;4.616;2024-01-30T07:09:18;10.30;99.90
20773;DHT22;10546;50.674;4.616;2024-01-30T07:11:44;10.40;99.90
20773;DHT22;10546;50.674;4.616;2024-01-30T07:14:10;10.30;99.90
20773;DHT22;10546;50.674;4.616;2024-01-30T07:16:36;10.30;99.90
20773;DHT22;10546;50.674;4.616;2024-01-30T07:19:01;10.20;99.90
20773;DHT22;10546;50.674;4.616;2024-01-30T07:21:27;10.20;99.90
20773;DHT22;10546;50.674;4.616;2024-01-30T07:23:57;10.20;99.90
20773;DHT22;10546;50.674;4.616;2024-01-30T07:26:23;10.30;99.90
20773;DHT22;10546;50.674;4.616;2024-01-30T07:28:48;10.30;99.90
20773;DHT22;10546;50.674;4.616;2024-01-30T07:31:15;10.30;99.90
20773;DHT22;10546;50.674;4.616;2024-01-30T07:33:41;10.40;99.90
20773;DHT22;10546;50.674;4.616;2024-01-30T07:36:07;10.50;99.90
20773;DHT22;10546;50.674;4.616;2024-01-30T07:38:32;10.50;99.90
20773;DHT22;10546;50.674;4.616;2024-01-30T07:40:58;10.50;99.90
20773;DHT22;10546;50.674;4.616;2024-01-30T07:43:24;10.50;99.90
20773;DHT22;10546;50.674;4.616;2024-01-30T07:45:50;10.60;99.90
20773;DHT22;10546;50.674;4.616;2024-01-30T07:48:15;10.70;99.90
20773;DHT22;10546;50.674;4.616;2024-01-30T07:50:41;10.70;99.90
20773;DHT22;10546;50.674;4.616;2024-01-30T07:53:07;10.70;99.90
20773;DHT22;10546;50.674;4.616;2024-01-30T07:55:33;10.80;99.90
20773;DHT22;10546;50.674;4.616;2024-01-30T07:57:58;10.90;99.90
20773;DHT22;10546;50.674;4.616;2024-01-30T08:00:24;10.90;99.90
20773;DHT22;10546;50.674;4.616;2024-01-30T08:02:50;10.90;99.90
20773;DHT22;10546;50.674;4.616;2024-01-30T08:05:15;11.00;99.90
20773;DHT22;10546;50.674;4.616;2024-01-30T08:07:41;11.10;99.90
20773;DHT22;10546;50.674;4.616;2024-01-30T08:10:12;11.10;99.90
20773;DHT22;10546;50.674;4.616;2024-01-30T08:12:38;11.10;99.90
20773;DHT22;10546;50.674;4.616;2024-01-30T08:15:04;11.10;99.90
20773;DHT22;10546;50.674;4.616;2024-01-30T08:17:30;11.10;99.90
20773;DHT22;10546;50.674;4.616;2024-01-30T08:19:56;11.20;99.90
20773;DHT22;10546;50.674;4.616;2024-01-30T08:22:21;11.20;99.90
20773;DHT22;10546;50.674;4.616;2024-01-30T08:24:47;11.30;99.90
20773;DHT22;10546;50.674;4.616;2024-01-30T08:27:13;11.30;99.90
20773;DHT22;10546;50.674;4.616;2024-01-30T08:29:38;11.30;99.90
20773;DHT22;10546;50.674;4.616;2024-01-30T08:32:05;11.20;99.90
20773;DHT22;10546;50.674;4.616;2024-01-30T08:34:31;11.20;99.90
20773;DHT22;10546;50.674;4.616;2024-01-30T08:36:56;11.30;99.90
20773;DHT22;10546;50.674;4.616;2024-01-30T08:39:22;11.30;99.90
20773;DHT22;10546;50.674;4.616;2024-01-30T08:41:48;11.30;99.90
20773;DHT22;10546;50.674;4.616;2024-01-30T08:44:14;11.30;99.90
20773;DHT22;10546;50.674;4.616;2024-01-30T08:46:39;11.30;99.90
20773;DHT22;10546;50.674;4.616;2024-01-30T08:49:05;11.30;99.90
20773;DHT22;10546;50.674;4.616;2024-01-30T08:51:31;11.30;99.90
20773;DHT22;10546;50.674;4.616;2024-01-30T08:53:56;11.40;99.90
20773;DHT22;10546;50.674;4.616;2024-01-30T08:56:22;11.50;99.90
20773;DHT22;10546;50.674;4.616;2024-01-30T08:58:48;11.40;99.90
20773;DHT22;10546;50.674;4.616;2024-01-30T09:01:14;11.50;99.90
20773;DHT22;10546;50.674;4.616;2024-01-30T09:03:40;11.50;99.90
20773;DHT22;10546;50.674;4.616;2024-01-30T09:06:12;11.60;99.90
20773;DHT22;10546;50.674;4.616;2024-01-30T09:08:38;11.60;99.90
20773;DHT22;10546;50.674;4.616;2024-01-30T09:11:14;11.70;99.90
20773;DHT22;10546;50.674;4.616;2024-01-30T09:13:40;11.80;99.90
20773;DHT22;10546;50.674;4.616;2024-01-30T09:16:06;11.80;99.90
20773;DHT22;10546;50.674;4.616;2024-01-30T09:18:32;11.70;99.90
20773;DHT22;10546;50.674;4.616;2024-01-30T09:20:58;11.70;99.90
20773;DHT22;10546;50.674;4.616;2024-01-30T09:23:24;11.50;99.90
20773;DHT22;10546;50.674;4.616;2024-01-30T09:25:50;11.60;99.90
20773;DHT22;10546;50.674;4.616;2024-01-30T09:28:17;11.50;99.90
20773;DHT22;10546;50.674;4.616;2024-01-30T09:30:43;11.50;99.90
20773;DHT22;10546;50.674;4.616;2024-01-30T09:33:09;11.60;99.90
20773;DHT22;10546;50.674;4.616;2024-01-30T09:35:35;11.60;99.90
20773;DHT22;10546;50.674;4.616;2024-01-30T09:38:02;11.70;99.90
20773;DHT22;10546;50.674;4.616;2024-01-30T09:40:29;11.60;99.90
20773;DHT22;10546;50.674;4.616;2024-01-30T09:42:55;11.60;99.90
20773;DHT22;10546;50.674;4.616;2024-01-30T09:45:25;11.60;99.90
20773;DHT22;10546;50.674;4.616;2024-01-30T09:47:52;11.60;99.90
20773;DHT22;10546;50.674;4.616;2024-01-30T09:50:18;11.70;99.90
20773;DHT22;10546;50.674;4.616;2024-01-30T09:52:45;11.70;99.90
20773;DHT22;10546;50.674;4.616;2024-01-30T09:55:11;11.80;99.90
20773;DHT22;10546;50.674;4.616;2024-01-30T09:57:37;11.90;99.90
20773;DHT22;10546;50.674;4.616;2024-01-30T10:00:06;11.70;99.90
20773;DHT22;10546;50.674;4.616;2024-01-30T10:02:37;11.70;99.90
20773;DHT22;10546;50.674;4.616;2024-01-30T10:05:03;11.80;99.90
20773;DHT22;10546;50.674;4.616;2024-01-30T10:07:29;11.70;99.90
20773;DHT22;10546;50.674;4.616;2024-01-30T10:09:56;11.80;99.90
20773;DHT22;10546;50.674;4.616;2024-01-30T10:12:27;11.70;99.90
20773;DHT22;10546;50.674;4.616;2024-01-30T10:14:55;11.70;99.90
20773;DHT22;10546;50.674;4.616;2024-01-30T10:17:21;11.60;99.90
20773;DHT22;10546;50.674;4.616;2024-01-30T10:19:50;11.60;99.90
20773;DHT22;10546;50.674;4.616;2024-01-30T10:22:17;11.60;99.90
20773;DHT22;10546;50.674;4.616;2024-01-30T10:24:43;11.70;99.90
20773;DHT22;10546;50.674;4.616;2024-01-30T10:27:10;11.60;99.90
20773;DHT22;10546;50.674;4.616;2024-01-30T10:29:37;11.60;99.90
20773;DHT22;10546;50.674;4.616;2024-01-30T10:32:06;11.70;99.90
20773;DHT22;10546;50.674;4.616;2024-01-30T10:34:32;11.70;99.90
20773;DHT22;10546;50.674;4.616;2024-01-30T10:37:10;11.70;99.90
20773;DHT22;10546;50.674;4.616;2024-01-30T10:39:42;11.80;99.90
20773;DHT22;10546;50.674;4.616;2024-01-30T10:42:15;11.70;99.90
20773;DHT22;10546;50.674;4.616;2024-01-30T10:45:08;11.60;99.90
20773;DHT22;10546;50.674;4.616;2024-01-30T10:47:37;11.80;99.90
20773;DHT22;10546;50.674;4.616;2024-01-30T10:50:05;11.70;99.90
20773;DHT22;10546;50.674;4.616;2024-01-30T10:52:32;11.70;99.90
20773;DHT22;10546;50.674;4.616;2024-01-30T10:54:58;11.80;99.90
20773;DHT22;10546;50.674;4.616;2024-01-30T10:57:27;11.70;99.90
20773;DHT22;10546;50.674;4.616;2024-01-30T11:00:01;11.70;99.90
20773;DHT22;10546;50.674;4.616;2024-01-30T11:02:31;11.70;99.90
20773;DHT22;10546;50.674;4.616;2024-01-30T11:04:58;11.60;99.90
20773;DHT22;10546;50.674;4.616;2024-01-30T11:07:26;11.60;99.90
20773;DHT22;10546;50.674;4.616;2024-01-30T11:10:02;11.50;99.90
20773;DHT22;10546;50.674;4.616;2024-01-30T11:12:30;11.50;99.90
20773;DHT22;10546;50.674;4.616;2024-01-30T11:17:41;11.70;99.90
20773;DHT22;10546;50.674;4.616;2024-01-30T11:20:25;11.60;99.90
20773;DHT22;10546;50.674;4.616;2024-01-30T11:22:54;11.70;99.90
20773;DHT22;10546;50.674;4.616;2024-01-30T11:25:22;11.80;99.90
20773;DHT22;10546;50.674;4.616;2024-01-30T11:27:50;11.70;99.90
20773;DHT22;10546;50.674;4.616;2024-01-30T11:30:30;11.60;99.90
20773;DHT22;10546;50.674;4.616;2024-01-30T11:33:06;11.50;99.90
20773;DHT22;10546;50.674;4.616;2024-01-30T11:35:35;11.60;99.90
20773;DHT22;10546;50.674;4.616;2024-01-30T11:38:01;11.60;99.90
20773;DHT22;10546;50.674;4.616;2024-01-30T11:40:31;11.60;99.90
20773;DHT22;10546;50.674;4.616;2024-01-30T11:43:00;11.60;99.90
20773;DHT22;10546;50.674;4.616;2024-01-30T11:45:29;11.70;99.90
20773;DHT22;10546;50.674;4.616;2024-01-30T11:47:55;11.70;99.90
20773;DHT22;10546;50.674;4.616;2024-01-30T11:50:21;11.70;99.90
20773;DHT22;10546;50.674;4.616;2024-01-30T11:52:47;11.70;99.90
20773;DHT22;10546;50.674;4.616;2024-01-30T11:55:16;11.60;99.90
20773;DHT22;10546;50.674;4.616;2024-01-30T11:57:43;11.40;99.90
20773;DHT22;10546;50.674;4.616;2024-01-30T12:00:19;11.20;99.90
20773;DHT22;10546;50.674;4.616;2024-01-30T12:02:50;11.20;99.90
20773;DHT22;10546;50.674;4.616;2024-01-30T12:05:18;11.30;99.90
20773;DHT22;10546;50.674;4.616;2024-01-30T12:07:45;11.20;99.90
20773;DHT22;10546;50.674;4.616;2024-01-30T12:10:13;11.30;99.90
20773;DHT22;10546;50.674;4.616;2024-01-30T12:12:40;11.40;99.90
20773;DHT22;10546;50.674;4.616;2024-01-30T12:15:07;11.40;99.90
20773;DHT22;10546;50.674;4.616;2024-01-30T12:17:34;11.40;99.90
20773;DHT22;10546;50.674;4.616;2024-01-30T12:20:17;11.20;99.90
20773;DHT22;10546;50.674;4.616;2024-01-30T12:22:48;11.20;99.90
20773;DHT22;10546;50.674;4.616;2024-01-30T12:25:15;11.30;99.90
20773;DHT22;10546;50.674;4.616;2024-01-30T12:27:51;11.30;99.90
20773;DHT22;10546;50.674;4.616;2024-01-30T12:30:18;11.40;99.90
20773;DHT22;10546;50.674;4.616;2024-01-30T12:32:45;11.30;99.90
20773;DHT22;10546;50.674;4.616;2024-01-30T12:35:15;11.20;99.90
20773;DHT22;10546;50.674;4.616;2024-01-30T12:37:43;11.30;99.90
20773;DHT22;10546;50.674;4.616;2024-01-30T12:40:10;11.30;99.90
20773;DHT22;10546;50.674;4.616;2024-01-30T12:42:36;11.50;99.90
20773;DHT22;10546;50.674;4.616;2024-01-30T12:45:03;11.50;99.90
20773;DHT22;10546;50.674;4.616;2024-01-30T12:47:29;11.50;99.90
20773;DHT22;10546;50.674;4.616;2024-01-30T12:49:55;11.50;99.90
20773;DHT22;10546;50.674;4.616;2024-01-30T12:52:21;11.60;99.90
20773;DHT22;10546;50.674;4.616;2024-01-30T12:54:51;11.70;99.90
20773;DHT22;10546;50.674;4.616;2024-01-30T12:57:17;11.60;99.90
20773;DHT22;10546;50.674;4.616;2024-01-30T12:59:44;11.60;99.90
20773;DHT22;10546;50.674;4.616;2024-01-30T13:02:11;11.40;99.90
20773;DHT22;10546;50.674;4.616;2024-01-30T13:04:37;11.40;99.90
20773;DHT22;10546;50.674;4.616;2024-01-30T13:07:03;11.40;99.90
20773;DHT22;10546;50.674;4.616;2024-01-30T13:09:30;11.30;99.90
20773;DHT22;10546;50.674;4.616;2024-01-30T13:11:57;11.40;99.90
20773;DHT22;10546;50.674;4.616;2024-01-30T13:14:24;11.30;99.90
20773;DHT22;10546;50.674;4.616;2024-01-30T13:16:50;11.40;99.90
20773;DHT22;10546;50.674;4.616;2024-01-30T13:19:16;11.50;99.90
20773;DHT22;10546;50.674;4.616;2024-01-30T13:21:42;11.50;99.90
20773;DHT22;10546;50.674;4.616;2024-01-30T13:24:08;11.30;99.90
20773;DHT22;10546;50.674;4.616;2024-01-30T13:26:34;11.30;99.90
20773;DHT22;10546;50.674;4.616;2024-01-30T13:28:59;11.30;99.90
20773;DHT22;10546;50.674;4.616;2024-01-30T13:31:25;11.30;99.90
20773;DHT22;10546;50.674;4.616;2024-01-30T13:33:52;11.30;99.90
20773;DHT22;10546;50.674;4.616;2024-01-30T13:36:18;11.30;99.90
20773;DHT22;10546;50.674;4.616;2024-01-30T13:38:44;11.30;99.90
20773;DHT22;10546;50.674;4.616;2024-01-30T13:41:10;11.30;99.90
20773;DHT22;10546;50.674;4.616;2024-01-30T13:43:35;11.30;99.90
20773;DHT22;10546;50.674;4.616;2024-01-30T13:46:01;11.30;99.90
20773;DHT22;10546;50.674;4.616;2024-01-30T13:48:27;11.30;99.90
20773;DHT22;10546;50.674;4.616;2024-01-30T13:50:53;11.40;99.90
20773;DHT22;10546;50.674;4.616;2024-01-30T13:53:19;11.30;99.90
20773;DHT22;10546;50.674;4.616;2024-01-30T13:55:44;11.30;99.90
20773;DHT22;10546;50.674;4.616;2024-01-30T13:58:10;11.20;99.90
20773;DHT22;10546;50.674;4.616;2024-01-30T14:00:36;11.20;99.90
20773;DHT22;10546;50.674;4.616;2024-01-30T14:03:02;11.20;99.90
20773;DHT22;10546;50.674;4.616;2024-01-30T14:05:28;11.40;99.90
20773;DHT22;10546;50.674;4.616;2024-01-30T14:07:54;11.20;99.90
20773;DHT22;10546;50.674;4.616;2024-01-30T14:10:20;11.30;99.90
20773;DHT22;10546;50.674;4.616;2024-01-30T14:12:46;11.30;99.90
20773;DHT22;10546;50.674;4.616;2024-01-30T14:15:13;11.30;99.90
20773;DHT22;10546;50.674;4.616;2024-01-30T14:17:40;11.30;99.90
20773;DHT22;10546;50.674;4.616;2024-01-30T14:20:06;11.10;99.90
20773;DHT22;10546;50.674;4.616;2024-01-30T14:22:33;11.20;99.90
20773;DHT22;10546;50.674;4.616;2024-01-30T14:25:02;11.20;99.90
20773;DHT22;10546;50.674;4.616;2024-01-30T14:27:31;11.20;99.90
20773;DHT22;10546;50.674;4.616;2024-01-30T14:29:57;11.10;99.90
20773;DHT22;10546;50.674;4.616;2024-01-30T14:32:24;11.00;99.90
20773;DHT22;10546;50.674;4.616;2024-01-30T14:34:50;11.10;99.90
20773;DHT22;10546;50.674;4.616;2024-01-30T14:37:17;11.10;99.90
20773;DHT22;10546;50.674;4.616;2024-01-30T14:39:43;11.20;99.90
20773;DHT22;10546;50.674;4.616;2024-01-30T14:42:09;11.10;99.90
20773;DHT22;10546;50.674;4.616;2024-01-30T14:44:35;11.10;99.90
20773;DHT22;10546;50.674;4.616;2024-01-30T14:47:01;10.90;99.90
20773;DHT22;10546;50.674;4.616;2024-01-30T14:49:27;10.90;99.90
20773;DHT22;10546;50.674;4.616;2024-01-30T14:51:53;10.80;99.90
20773;DHT22;10546;50.674;4.616;2024-01-30T14:54:18;10.90;99.90
20773;DHT22;10546;50.674;4.616;2024-01-30T14:56:44;10.80;99.90
20773;DHT22;10546;50.674;4.616;2024-01-30T14:59:10;10.90;99.90
20773;DHT22;10546;50.674;4.616;2024-01-30T15:01:36;11.00;99.90
20773;DHT22;10546;50.674;4.616;2024-01-30T15:04:02;10.90;99.90
20773;DHT22;10546;50.674;4.616;2024-01-30T15:06:28;10.90;99.90
20773;DHT22;10546;50.674;4.616;2024-01-30T15:08:54;10.90;99.90
20773;DHT22;10546;50.674;4.616;2024-01-30T15:11:20;11.00;99.90
20773;DHT22;10546;50.674;4.616;2024-01-30T15:13:45;10.90;99.90
20773;DHT22;10546;50.674;4.616;2024-01-30T15:16:11;10.90;99.90
20773;DHT22;10546;50.674;4.616;2024-01-30T15:18:37;11.00;99.90
20773;DHT22;10546;50.674;4.616;2024-01-30T15:21:03;10.90;99.90
20773;DHT22;10546;50.674;4.616;2024-01-30T15:23:28;10.70;99.90
20773;DHT22;10546;50.674;4.616;2024-01-30T15:25:54;10.70;99.90
20773;DHT22;10546;50.674;4.616;2024-01-30T15:28:33;10.70;99.90
20773;DHT22;10546;50.674;4.616;2024-01-30T15:31:00;10.70;99.90
20773;DHT22;10546;50.674;4.616;2024-01-30T15:33:26;10.60;99.90
20773;DHT22;10546;50.674;4.616;2024-01-30T15:35:53;10.50;99.90
20773;DHT22;10546;50.674;4.616;2024-01-30T15:38:19;10.60;99.90
20773;DHT22;10546;50.674;4.616;2024-01-30T15:40:46;10.50;99.90
20773;DHT22;10546;50.674;4.616;2024-01-30T15:43:12;10.30;99.90
20773;DHT22;10546;50.674;4.616;2024-01-30T15:45:37;10.30;99.90
20773;DHT22;10546;50.674;4.616;2024-01-30T15:48:04;10.40;99.90
20773;DHT22;10546;50.674;4.616;2024-01-30T15:50:30;10.30;99.90
20773;DHT22;10546;50.674;4.616;2024-01-30T15:52:58;10.30;99.90
20773;DHT22;10546;50.674;4.616;2024-01-30T15:55:24;10.30;99.90
20773;DHT22;10546;50.674;4.616;2024-01-30T15:57:50;10.20;99.90
20773;DHT22;10546;50.674;4.616;2024-01-30T16:00:15;10.20;99.90
20773;DHT22;10546;50.674;4.616;2024-01-30T16:02:41;10.30;99.90
20773;DHT22;10546;50.674;4.616;2024-01-30T16:05:07;10.40;99.90
20773;DHT22;10546;50.674;4.616;2024-01-30T16:07:34;10.20;99.90
20773;DHT22;10546;50.674;4.616;2024-01-30T16:10:00;10.20;99.90
20773;DHT22;10546;50.674;4.616;2024-01-30T16:12:27;10.20;99.90
20773;DHT22;10546;50.674;4.616;2024-01-30T16:14:52;10.10;99.90
20773;DHT22;10546;50.674;4.616;2024-01-30T16:17:18;10.00;99.90
20773;DHT22;10546;50.674;4.616;2024-01-30T16:19:44;10.00;99.90
20773;DHT22;10546;50.674;4.616;2024-01-30T16:22:10;10.00;99.90
20773;DHT22;10546;50.674;4.616;2024-01-30T16:24:36;9.90;99.90
20773;DHT22;10546;50.674;4.616;2024-01-30T16:27:01;9.90;99.90
20773;DHT22;10546;50.674;4.616;2024-01-30T16:29:27;10.00;99.90
20773;DHT22;10546;50.674;4.616;2024-01-30T16:31:53;10.00;99.90
20773;DHT22;10546;50.674;4.616;2024-01-30T16:34:18;9.90;99.90
20773;DHT22;10546;50.674;4.616;2024-01-30T16:36:44;9.80;99.90
20773;DHT22;10546;50.674;4.616;2024-01-30T16:39:10;9.70;99.90
20773;DHT22;10546;50.674;4.616;2024-01-30T16:41:36;9.50;99.90
20773;DHT22;10546;50.674;4.616;2024-01-30T16:44:02;9.30;99.90
20773;DHT22;10546;50.674;4.616;2024-01-30T16:46:28;9.20;99.90
20773;DHT22;10546;50.674;4.616;2024-01-30T16:48:54;9.30;99.90
20773;DHT22;10546;50.674;4.616;2024-01-30T16:51:20;9.40;99.90
20773;DHT22;10546;50.674;4.616;2024-01-30T16:53:45;9.40;99.90
20773;DHT22;10546;50.674;4.616;2024-01-30T16:56:13;9.40;99.90
20773;DHT22;10546;50.674;4.616;2024-01-30T16:58:39;9.30;99.90
20773;DHT22;10546;50.674;4.616;2024-01-30T17:01:05;9.40;99.90
20773;DHT22;10546;50.674;4.616;2024-01-30T17:03:30;9.40;99.90
20773;DHT22;10546;50.674;4.616;2024-01-30T17:05:56;9.30;99.90
20773;DHT22;10546;50.674;4.616;2024-01-30T17:08:24;9.40;99.90
20773;DHT22;10546;50.674;4.616;2024-01-30T17:10:50;9.40;99.90
20773;DHT22;10546;50.674;4.616;2024-01-30T17:13:15;9.50;99.90
20773;DHT22;10546;50.674;4.616;2024-01-30T17:15:42;9.50;99.90
20773;DHT22;10546;50.674;4.616;2024-01-30T17:18:07;9.40;99.90
20773;DHT22;10546;50.674;4.616;2024-01-30T17:20:33;9.40;99.90
20773;DHT22;10546;50.674;4.616;2024-01-30T17:22:59;9.50;99.90
20773;DHT22;10546;50.674;4.616;2024-01-30T17:25:25;9.40;99.90
20773;DHT22;10546;50.674;4.616;2024-01-30T17:27:51;9.30;99.90
20773;DHT22;10546;50.674;4.616;2024-01-30T17:30:21;9.30;99.90
20773;DHT22;10546;50.674;4.616;2024-01-30T17:32:47;9.30;99.90
20773;DHT22;10546;50.674;4.616;2024-01-30T17:35:13;9.30;99.90
20773;DHT22;10546;50.674;4.616;2024-01-30T17:37:38;9.30;99.90
20773;DHT22;10546;50.674;4.616;2024-01-30T17:40:05;9.20;99.90
20773;DHT22;10546;50.674;4.616;2024-01-30T17:42:31;9.20;99.90
20773;DHT22;10546;50.674;4.616;2024-01-30T17:44:57;9.20;99.90
20773;DHT22;10546;50.674;4.616;2024-01-30T17:47:22;9.10;99.90
20773;DHT22;10546;50.674;4.616;2024-01-30T17:49:48;9.10;99.90
20773;DHT22;10546;50.674;4.616;2024-01-30T17:52:14;9.10;99.90
20773;DHT22;10546;50.674;4.616;2024-01-30T17:54:41;9.00;99.90
20773;DHT22;10546;50.674;4.616;2024-01-30T17:57:07;8.90;99.90
20773;DHT22;10546;50.674;4.616;2024-01-30T17:59:32;8.90;99.90
20773;DHT22;10546;50.674;4.616;2024-01-30T18:01:58;9.00;99.90
20773;DHT22;10546;50.674;4.616;2024-01-30T18:04:24;9.00;99.90
20773;DHT22;10546;50.674;4.616;2024-01-30T18:06:51;8.90;99.90
20773;DHT22;10546;50.674;4.616;2024-01-30T18:09:16;8.90;99.90
20773;DHT22;10546;50.674;4.616;2024-01-30T18:11:42;8.90;99.90
20773;DHT22;10546;50.674;4.616;2024-01-30T18:14:08;9.00;99.90
20773;DHT22;10546;50.674;4.616;2024-01-30T18:16:33;9.00;99.90
20773;DHT22;10546;50.674;4.616;2024-01-30T18:18:59;9.00;99.90
20773;DHT22;10546;50.674;4.616;2024-01-30T18:21:25;8.90;99.90
20773;DHT22;10546;50.674;4.616;2024-01-30T18:23:51;8.70;99.90
20773;DHT22;10546;50.674;4.616;2024-01-30T18:26:17;8.70;99.90
20773;DHT22;10546;50.674;4.616;2024-01-30T18:28:45;8.70;99.90
20773;DHT22;10546;50.674;4.616;2024-01-30T18:31:11;8.80;99.90
20773;DHT22;10546;50.674;4.616;2024-01-30T18:33:37;8.90;99.90
20773;DHT22;10546;50.674;4.616;2024-01-30T18:36:06;8.90;99.90
20773;DHT22;10546;50.674;4.616;2024-01-30T18:38:31;8.80;99.90
20773;DHT22;10546;50.674;4.616;2024-01-30T18:40:57;8.80;99.90
20773;DHT22;10546;50.674;4.616;2024-01-30T18:43:23;8.80;99.90
20773;DHT22;10546;50.674;4.616;2024-01-30T18:45:53;8.70;99.90
20773;DHT22;10546;50.674;4.616;2024-01-30T18:48:22;8.70;99.90
20773;DHT22;10546;50.674;4.616;2024-01-30T18:50:48;8.70;99.90
20773;DHT22;10546;50.674;4.616;2024-01-30T18:53:14;8.70;99.90
20773;DHT22;10546;50.674;4.616;2024-01-30T18:55:40;8.70;99.90
20773;DHT22;10546;50.674;4.616;2024-01-30T18:58:05;8.80;99.90
20773;DHT22;10546;50.674;4.616;2024-01-30T19:00:35;8.70;99.90
20773;DHT22;10546;50.674;4.616;2024-01-30T19:03:05;8.80;99.90
20773;DHT22;10546;50.674;4.616;2024-01-30T19:05:31;8.80;99.90
20773;DHT22;10546;50.674;4.616;2024-01-30T19:07:56;8.80;99.90
20773;DHT22;10546;50.674;4.616;2024-01-30T19:10:22;8.80;99.90
20773;DHT22;10546;50.674;4.616;2024-01-30T19:12:49;8.70;99.90
20773;DHT22;10546;50.674;4.616;2024-01-30T19:15:14;8.90;99.90
20773;DHT22;10546;50.674;4.616;2024-01-30T19:17:40;8.90;99.90
20773;DHT22;10546;50.674;4.616;2024-01-30T19:20:06;8.90;99.90
20773;DHT22;10546;50.674;4.616;2024-01-30T19:22:32;8.90;99.90
20773;DHT22;10546;50.674;4.616;2024-01-30T19:24:58;8.90;99.90
20773;DHT22;10546;50.674;4.616;2024-01-30T19:27:27;8.90;99.90
20773;DHT22;10546;50.674;4.616;2024-01-30T19:29:52;8.80;99.90
20773;DHT22;10546;50.674;4.616;2024-01-30T19:32:19;8.80;99.90
20773;DHT22;10546;50.674;4.616;2024-01-30T19:34:44;8.90;99.90
20773;DHT22;10546;50.674;4.616;2024-01-30T19:37:10;8.80;99.90
20773;DHT22;10546;50.674;4.616;2024-01-30T19:39:35;8.90;99.90
20773;DHT22;10546;50.674;4.616;2024-01-30T19:42:01;8.80;99.90
20773;DHT22;10546;50.674;4.616;2024-01-30T19:44:27;8.70;99.90
20773;DHT22;10546;50.674;4.616;2024-01-30T19:46:52;8.70;99.90
20773;DHT22;10546;50.674;4.616;2024-01-30T19:49:18;8.70;99.90
20773;DHT22;10546;50.674;4.616;2024-01-30T19:51:44;8.60;99.90
20773;DHT22;10546;50.674;4.616;2024-01-30T19:54:11;8.60;99.90
20773;DHT22;10546;50.674;4.616;2024-01-30T19:56:40;8.50;99.90
20773;DHT22;10546;50.674;4.616;2024-01-30T19:59:05;8.60;99.90
20773;DHT22;10546;50.674;4.616;2024-01-30T20:01:32;8.80;99.90
20773;DHT22;10546;50.674;4.616;2024-01-30T20:03:59;8.80;99.90
20773;DHT22;10546;50.674;4.616;2024-01-30T20:06:25;8.80;99.90
20773;DHT22;10546;50.674;4.616;2024-01-30T20:08:50;8.60;99.90
20773;DHT22;10546;50.674;4.616;2024-01-30T20:11:16;8.60;99.90
20773;DHT22;10546;50.674;4.616;2024-01-30T20:13:42;8.60;99.90
20773;DHT22;10546;50.674;4.616;2024-01-30T20:16:07;8.60;99.90
20773;DHT22;10546;50.674;4.616;2024-01-30T20:18:33;8.60;99.90
20773;DHT22;10546;50.674;4.616;2024-01-30T20:20:59;8.50;99.90
20773;DHT22;10546;50.674;4.616;2024-01-30T20:23:25;8.50;99.90
20773;DHT22;10546;50.674;4.616;2024-01-30T20:25:50;8.50;99.90
20773;DHT22;10546;50.674;4.616;2024-01-30T20:28:16;8.50;99.90
20773;DHT22;10546;50.674;4.616;2024-01-30T20:30:42;8.50;99.90
20773;DHT22;10546;50.674;4.616;2024-01-30T20:33:08;8.60;99.90
20773;DHT22;10546;50.674;4.616;2024-01-30T20:35:39;8.60;99.90
20773;DHT22;10546;50.674;4.616;2024-01-30T20:38:05;8.60;99.90
20773;DHT22;10546;50.674;4.616;2024-01-30T20:40:34;8.60;99.90
20773;DHT22;10546;50.674;4.616;2024-01-30T20:43:00;8.60;99.90
20773;DHT22;10546;50.674;4.616;2024-01-30T20:45:25;8.70;99.90
20773;DHT22;10546;50.674;4.616;2024-01-30T20:47:51;8.80;99.90
20773;DHT22;10546;50.674;4.616;2024-01-30T20:50:17;8.90;99.90
20773;DHT22;10546;50.674;4.616;2024-01-30T20:52:42;8.80;99.90
20773;DHT22;10546;50.674;4.616;2024-01-30T20:55:08;8.80;99.90
20773;DHT22;10546;50.674;4.616;2024-01-30T20:57:34;8.80;99.90
20773;DHT22;10546;50.674;4.616;2024-01-30T21:00:01;8.90;99.90
20773;DHT22;10546;50.674;4.616;2024-01-30T21:02:27;9.00;99.90
20773;DHT22;10546;50.674;4.616;2024-01-30T21:04:52;9.00;99.90
20773;DHT22;10546;50.674;4.616;2024-01-30T21:07:18;9.00;99.90
20773;DHT22;10546;50.674;4.616;2024-01-30T21:09:44;9.00;99.90
20773;DHT22;10546;50.674;4.616;2024-01-30T21:12:10;9.00;99.90
20773;DHT22;10546;50.674;4.616;2024-01-30T21:14:36;9.00;99.90
20773;DHT22;10546;50.674;4.616;2024-01-30T21:17:02;9.00;99.90
20773;DHT22;10546;50.674;4.616;2024-01-30T21:19:27;8.90;99.90
20773;DHT22;10546;50.674;4.616;2024-01-30T21:21:53;8.90;99.90
20773;DHT22;10546;50.674;4.616;2024-01-30T21:24:19;8.90;99.90
20773;DHT22;10546;50.674;4.616;2024-01-30T21:26:44;8.90;99.90
20773;DHT22;10546;50.674;4.616;2024-01-30T21:29:10;8.90;99.90
20773;DHT22;10546;50.674;4.616;2024-01-30T21:31:36;9.00;99.90
20773;DHT22;10546;50.674;4.616;2024-01-30T21:34:01;8.90;99.90
20773;DHT22;10546;50.674;4.616;2024-01-30T21:36:27;9.00;99.90
20773;DHT22;10546;50.674;4.616;2024-01-30T21:38:53;8.90;99.90
20773;DHT22;10546;50.674;4.616;2024-01-30T21:41:18;8.90;99.90
20773;DHT22;10546;50.674;4.616;2024-01-30T21:43:45;8.80;99.90
20773;DHT22;10546;50.674;4.616;2024-01-30T21:46:11;8.80;99.90
20773;DHT22;10546;50.674;4.616;2024-01-30T21:48:37;8.90;99.90
20773;DHT22;10546;50.674;4.616;2024-01-30T21:51:03;8.90;99.90
20773;DHT22;10546;50.674;4.616;2024-01-30T21:53:29;8.90;99.90
20773;DHT22;10546;50.674;4.616;2024-01-30T21:55:55;8.90;99.90
20773;DHT22;10546;50.674;4.616;2024-01-30T21:58:20;8.90;99.90
20773;DHT22;10546;50.674;4.616;2024-01-30T22:00:46;9.00;99.90
20773;DHT22;10546;50.674;4.616;2024-01-30T22:03:12;9.10;99.90
20773;DHT22;10546;50.674;4.616;2024-01-30T22:05:37;9.00;99.90
20773;DHT22;10546;50.674;4.616;2024-01-30T22:08:04;9.00;99.90
20773;DHT22;10546;50.674;4.616;2024-01-30T22:10:30;9.00;99.90
20773;DHT22;10546;50.674;4.616;2024-01-30T22:12:55;8.90;99.90